createdAt,value
2023-04-16T00:02:15.388Z,83.32
2023-04-16T00:04:42.706Z,83.17
2023-04-16T00:07:09.887Z,83.22
2023-04-16T00:09:37.005Z,83.25
2023-04-16T00:12:04.698Z,83.54
2023-04-16T00:14:31.869Z,83.29
2023-04-16T00:16:59.027Z,83.39
2023-04-16T00:19:26.248Z,83.69
2023-04-16T00:21:56.544Z,83.52
2023-04-16T00:24:26.836Z,83.70
2023-04-16T00:26:54.144Z,83.75
2023-04-16T00:29:21.273Z,83.66
2023-04-16T00:31:48.449Z,83.57
2023-04-16T00:34:15.900Z,83.78
2023-04-16T00:36:42.989Z,83.71
2023-04-16T00:39:10.168Z,83.90
2023-04-16T00:41:38.532Z,83.95
2023-04-16T00:44:05.659Z,83.79
2023-04-16T00:46:33.203Z,84.03
2023-04-16T00:49:01.611Z,84.00
2023-04-16T00:51:28.935Z,84.47
2023-04-16T00:53:56.507Z,84.21
2023-04-16T00:56:25.818Z,84.13
2023-04-16T00:58:52.902Z,83.94
2023-04-16T01:01:20.096Z,84.17
2023-04-16T01:03:49.593Z,84.08
2023-04-16T01:06:18.232Z,84.33
2023-04-16T01:08:46.907Z,84.38
2023-04-16T01:11:15.698Z,84.34
2023-04-16T01:13:43.155Z,84.14
2023-04-16T01:16:11.951Z,84.30
2023-04-16T01:18:39.607Z,84.38
2023-04-16T01:21:06.888Z,84.32
2023-04-16T01:23:34.011Z,84.63
2023-04-16T01:26:01.202Z,84.46
2023-04-16T01:28:28.313Z,84.58
2023-04-16T01:30:55.702Z,84.66
2023-04-16T01:33:23.293Z,84.52
2023-04-16T01:35:50.568Z,84.30
2023-04-16T01:38:17.811Z,84.44
2023-04-16T01:40:44.943Z,84.84
2023-04-16T01:43:12.119Z,84.48
2023-04-16T01:45:39.216Z,84.65
2023-04-16T01:48:06.701Z,84.43
2023-04-16T01:50:34.132Z,84.65
2023-04-16T01:53:02.339Z,84.71
2023-04-16T01:55:29.431Z,84.89
2023-04-16T01:57:56.521Z,84.89
2023-04-16T02:00:24.004Z,84.91
2023-04-16T02:02:51.298Z,84.95
2023-04-16T02:05:18.532Z,85.11
2023-04-16T02:07:45.648Z,85.10
2023-04-16T02:10:12.779Z,84.94
2023-04-16T02:12:39.917Z,85.21
2023-04-16T02:15:07.916Z,84.94
2023-04-16T02:17:35.008Z,85.12
2023-04-16T02:20:04.020Z,85.37
2023-04-16T02:22:31.074Z,85.38
2023-04-16T02:24:58.187Z,85.17
2023-04-16T02:27:28.330Z,85.48
2023-04-16T02:29:55.705Z,85.49
2023-04-16T02:32:22.897Z,85.49
2023-04-16T02:34:49.976Z,85.61
2023-04-16T02:37:17.076Z,85.40
2023-04-16T02:39:44.277Z,85.38
2023-04-16T02:42:11.377Z,85.65
2023-04-16T02:44:38.446Z,85.71
2023-04-16T02:47:05.640Z,85.72
2023-04-16T02:49:32.909Z,85.59
2023-04-16T02:51:59.998Z,86.04
2023-04-16T02:54:27.139Z,85.84
2023-04-16T02:56:55.490Z,85.85
2023-04-16T02:59:22.810Z,85.80
2023-04-16T03:01:50.132Z,85.58
2023-04-16T03:04:17.403Z,85.75
2023-04-16T03:06:44.505Z,85.84
2023-04-16T03:09:11.805Z,85.89
2023-04-16T03:11:38.951Z,85.86
2023-04-16T03:14:05.996Z,85.76
2023-04-16T03:16:33.063Z,85.75
2023-04-16T03:19:00.162Z,85.78
2023-04-16T03:21:28.078Z,85.65
2023-04-16T03:23:58.281Z,85.76
2023-04-16T03:26:25.861Z,85.66
2023-04-16T03:28:52.988Z,85.96
2023-04-16T03:31:20.098Z,85.93
2023-04-16T03:33:48.122Z,85.95
2023-04-16T03:36:15.255Z,85.71
2023-04-16T03:38:42.394Z,85.86
2023-04-16T03:41:09.479Z,85.92
2023-04-16T03:43:36.571Z,85.78
2023-04-16T05:03:51.038Z,85.70
2023-04-16T05:06:18.323Z,85.74
2023-04-16T05:08:45.478Z,85.82
2023-04-16T05:11:12.686Z,86.01
2023-04-16T05:13:39.773Z,86.15
2023-04-16T05:16:07.616Z,86.30
2023-04-16T05:18:34.816Z,86.29
2023-04-16T05:21:01.953Z,86.34
2023-04-16T05:23:29.047Z,86.52
2023-04-16T05:25:56.154Z,86.66
2023-04-16T05:28:23.222Z,86.65
2023-04-16T05:30:51.086Z,86.61
2023-04-16T05:33:18.178Z,86.58
2023-04-16T05:35:45.265Z,86.74
2023-04-16T05:38:12.335Z,86.38
2023-04-16T05:40:39.462Z,86.57
2023-04-16T05:43:06.571Z,86.69
2023-04-16T05:45:39.702Z,86.73
2023-04-16T05:48:09.225Z,86.61
2023-04-16T05:50:37.215Z,86.96
2023-04-16T05:53:09.931Z,86.77
2023-04-16T05:55:37.214Z,86.82
2023-04-16T05:58:05.258Z,86.63
2023-04-16T06:00:33.138Z,86.86
2023-04-16T06:03:00.337Z,86.75
2023-04-16T06:05:28.161Z,86.68
2023-04-16T06:07:56.248Z,86.85
2023-04-16T06:10:23.480Z,86.81
2023-04-16T06:12:51.424Z,86.97
2023-04-16T06:15:18.576Z,86.87
2023-04-16T06:17:45.698Z,86.79
2023-04-16T06:20:13.263Z,87.15
2023-04-16T06:22:40.520Z,86.98
2023-04-16T06:25:08.146Z,86.85
2023-04-16T06:27:35.222Z,87.02
2023-04-16T06:30:02.342Z,86.92
2023-04-16T06:32:29.540Z,87.05
2023-04-16T06:34:59.580Z,87.00
2023-04-16T06:37:27.396Z,86.99
2023-04-16T06:39:54.492Z,86.78
2023-04-16T06:42:21.567Z,87.09
2023-04-16T06:44:48.648Z,87.08
2023-04-16T06:47:16.510Z,87.02
2023-04-16T06:49:43.661Z,87.08
2023-04-16T06:52:10.911Z,86.88
2023-04-16T06:54:38.097Z,86.84
2023-04-16T06:57:05.154Z,86.84
2023-04-16T06:59:32.452Z,86.83
2023-04-16T07:01:59.583Z,87.05
2023-04-16T07:04:27.425Z,86.95
2023-04-16T07:06:54.526Z,86.83
2023-04-16T07:09:21.625Z,86.84
2023-04-16T07:11:48.980Z,86.97
2023-04-16T07:14:16.215Z,86.86
2023-04-16T07:16:43.421Z,87.04
2023-04-16T07:19:11.101Z,86.87
2023-04-16T07:21:38.426Z,86.87
2023-04-16T07:24:05.780Z,87.06
2023-04-16T07:26:33.099Z,86.87
2023-04-16T07:29:00.171Z,86.94
2023-04-16T07:31:27.930Z,86.81
2023-04-16T07:33:55.079Z,86.97
2023-04-16T07:36:22.182Z,86.77
2023-04-16T07:38:49.286Z,86.69
2023-04-16T07:41:16.499Z,86.81
2023-04-16T07:43:43.623Z,86.67
2023-04-16T07:46:10.871Z,86.90
2023-04-16T07:48:37.960Z,86.81
2023-04-16T07:51:05.039Z,86.63
2023-04-16T07:53:32.348Z,86.65
2023-04-16T07:55:59.474Z,86.63
2023-04-16T07:58:27.283Z,86.76
2023-04-16T08:00:54.417Z,86.66
2023-04-16T08:03:21.851Z,86.62
2023-04-16T08:05:49.064Z,86.75
2023-04-16T08:08:16.251Z,86.97
2023-04-16T08:10:43.318Z,86.84
2023-04-16T08:13:10.697Z,86.70
2023-04-16T08:15:37.807Z,86.62
2023-04-16T08:18:06.094Z,86.63
2023-04-16T08:20:33.751Z,86.62
2023-04-16T08:23:00.833Z,86.33
2023-04-16T08:25:27.996Z,86.57
2023-04-16T08:27:55.228Z,86.51
2023-04-16T08:30:23.115Z,86.37
2023-04-16T08:32:50.948Z,86.62
2023-04-16T08:35:18.116Z,86.39
2023-04-16T08:37:45.198Z,86.54
2023-04-16T08:40:12.637Z,86.29
2023-04-16T08:42:53.793Z,86.49
2023-04-16T08:45:21.167Z,86.40
2023-04-16T08:47:52.300Z,86.38
2023-04-16T08:50:25.763Z,86.44
2023-04-16T08:53:00.942Z,86.24
2023-04-16T08:55:51.509Z,86.31
2023-04-16T08:58:22.534Z,86.13
2023-04-16T09:00:50.124Z,86.21
2023-04-16T09:03:17.426Z,86.05
2023-04-16T09:05:44.772Z,86.02
2023-04-16T09:08:12.422Z,85.83
2023-04-16T09:10:39.662Z,85.90
2023-04-16T09:13:08.457Z,85.99
2023-04-16T09:15:36.162Z,85.75
2023-04-16T09:18:03.348Z,85.84
2023-04-16T09:20:30.624Z,85.84
2023-04-16T09:22:57.744Z,85.42
2023-04-16T09:25:28.446Z,85.69
2023-04-16T09:27:55.810Z,85.49
2023-04-16T09:30:25.554Z,85.41
2023-04-16T09:33:00.165Z,85.34
2023-04-16T09:35:27.557Z,85.42
2023-04-16T09:37:58.485Z,85.31
2023-04-16T09:40:30.715Z,85.18
2023-04-16T09:42:58.932Z,85.04
2023-04-16T09:45:26.750Z,85.16
2023-04-16T09:47:53.900Z,85.03
2023-04-16T09:50:21.263Z,85.11
2023-04-16T09:52:52.832Z,85.14
2023-04-16T09:55:28.250Z,84.85
2023-04-16T09:58:02.250Z,84.98
2023-04-16T10:00:34.477Z,84.70
2023-04-16T10:03:08.471Z,84.76
2023-04-16T10:05:35.851Z,84.48
2023-04-16T10:08:03.406Z,84.55
2023-04-16T10:10:30.784Z,84.38
2023-04-16T10:12:58.199Z,84.42
2023-04-16T10:15:25.907Z,84.53
2023-04-16T10:17:54.503Z,84.42
2023-04-16T10:20:22.710Z,84.29
2023-04-16T10:22:50.920Z,84.16
2023-04-16T10:25:18.685Z,83.94
2023-04-16T10:27:46.112Z,83.99
2023-04-16T10:30:14.105Z,84.08
2023-04-16T10:32:41.474Z,83.94
2023-04-16T10:35:09.000Z,83.69
2023-04-16T10:37:38.277Z,83.73
2023-04-16T10:40:28.107Z,83.72
2023-04-16T10:42:57.644Z,83.61
2023-04-16T10:45:38.073Z,83.59
2023-04-16T10:48:07.209Z,83.61
2023-04-16T10:50:37.986Z,83.44
2023-04-16T10:53:31.495Z,83.39
2023-04-16T10:56:07.215Z,83.47
2023-04-16T10:58:36.569Z,83.42
2023-04-16T11:01:14.548Z,83.30
2023-04-16T11:03:47.300Z,83.25
2023-04-16T11:06:17.800Z,83.34
2023-04-16T11:11:16.393Z,83.05
2023-04-16T11:13:48.609Z,82.82
2023-04-16T11:16:17.018Z,83.03
2023-04-16T11:18:51.338Z,82.83
2023-04-16T11:21:19.059Z,83.05
2023-04-16T11:23:48.633Z,82.86
2023-04-16T11:26:28.286Z,82.74
2023-04-16T11:28:57.121Z,82.85
2023-04-16T11:31:25.002Z,82.80
2023-04-16T11:33:52.206Z,82.76
2023-04-16T11:36:19.482Z,82.83
2023-04-16T11:38:47.168Z,82.49
2023-04-16T11:41:21.005Z,82.56
2023-04-16T11:43:48.126Z,82.55
2023-04-16T11:46:26.914Z,82.45
2023-04-16T11:48:58.840Z,82.55
2023-04-16T11:51:25.996Z,82.46
2023-04-16T11:53:54.356Z,82.43
2023-04-16T11:56:34.516Z,82.58
2023-04-16T11:59:21.207Z,82.65
2023-04-16T12:01:51.559Z,82.49
2023-04-16T12:04:29.610Z,82.33
2023-04-16T12:07:13.512Z,82.46
2023-04-16T12:09:43.204Z,82.32
2023-04-16T12:12:31.642Z,82.30
2023-04-16T12:15:00.393Z,82.27
2023-04-16T12:17:27.636Z,82.26
2023-04-16T12:20:00.365Z,82.11
2023-04-16T12:22:31.705Z,81.99
2023-04-16T12:24:59.657Z,82.12
2023-04-16T12:27:28.859Z,82.07
2023-04-16T12:30:07.492Z,82.02
2023-04-16T12:32:34.719Z,82.17
2023-04-16T12:35:02.185Z,82.02
2023-04-16T12:37:29.257Z,81.85
2023-04-16T12:39:56.721Z,81.67
2023-04-16T12:42:23.835Z,81.85
2023-04-16T12:44:51.799Z,81.79
2023-04-16T12:47:18.912Z,81.66
2023-04-16T12:49:46.035Z,81.72
2023-04-16T12:52:13.149Z,81.61
2023-04-16T12:54:40.214Z,81.56
2023-04-16T12:57:07.333Z,81.45
2023-04-16T12:59:34.458Z,81.41
2023-04-16T13:02:03.062Z,81.17
2023-04-16T13:04:30.380Z,81.16
2023-04-16T13:06:57.574Z,81.12
2023-04-16T13:09:25.010Z,81.38
2023-04-16T13:11:52.233Z,81.20
2023-04-16T13:14:20.908Z,81.07
2023-04-16T13:16:48.019Z,80.80
2023-04-16T13:19:16.151Z,81.14
2023-04-16T13:21:43.327Z,80.90
2023-04-16T13:24:10.504Z,80.63
2023-04-16T13:26:37.641Z,80.94
2023-04-16T13:29:04.793Z,80.76
2023-04-16T13:31:31.953Z,80.63
2023-04-16T13:33:59.151Z,80.63
2023-04-16T13:36:27.843Z,80.68
2023-04-16T13:38:55.000Z,80.25
2023-04-16T13:41:22.175Z,80.24
2023-04-16T13:43:49.297Z,80.00
2023-04-16T13:46:16.583Z,79.99
2023-04-16T13:48:43.822Z,80.04
2023-04-16T13:51:10.969Z,79.81
2023-04-16T13:53:38.109Z,79.84
2023-04-16T13:56:05.656Z,79.61
2023-04-16T13:58:32.994Z,79.52
2023-04-16T14:01:00.298Z,79.53
2023-04-16T14:03:27.592Z,79.56
2023-04-16T14:05:54.754Z,79.45
2023-04-16T14:08:22.548Z,79.68
2023-04-16T14:10:49.672Z,79.66
2023-04-16T14:13:16.809Z,79.42
2023-04-16T14:15:43.928Z,79.36
2023-04-16T14:18:11.386Z,79.07
2023-04-16T14:20:40.162Z,79.02
2023-04-16T14:23:07.569Z,78.92
2023-04-16T14:25:34.782Z,79.12
2023-04-16T14:28:02.096Z,78.97
2023-04-16T14:30:29.257Z,78.91
2023-04-16T14:32:56.710Z,79.00
2023-04-16T14:35:24.021Z,79.19
2023-04-16T14:37:51.349Z,78.89
2023-04-16T14:40:18.617Z,79.00
2023-04-16T14:42:46.005Z,79.06
2023-04-16T14:45:13.266Z,79.32
2023-04-16T14:47:46.129Z,79.23
2023-04-16T14:50:14.886Z,79.48
2023-04-16T14:52:42.413Z,79.37
2023-04-16T14:55:09.593Z,79.36
2023-04-16T14:57:36.750Z,79.45
2023-04-16T15:00:08.096Z,79.38
2023-04-16T15:02:35.739Z,79.43
2023-04-16T15:05:03.061Z,79.52
2023-04-16T15:07:30.368Z,79.55
2023-04-16T15:09:57.642Z,79.67
2023-04-16T15:12:25.071Z,79.61
2023-04-16T15:14:52.282Z,79.67
2023-04-16T15:17:21.831Z,79.39
2023-04-16T15:19:48.985Z,79.22
2023-04-16T15:22:16.986Z,79.48
2023-04-16T15:24:44.326Z,79.38
2023-04-16T15:27:12.642Z,79.36
2023-04-16T15:29:39.737Z,79.33
2023-04-16T15:32:07.264Z,79.04
2023-04-16T15:34:34.718Z,79.30
2023-04-16T15:37:01.910Z,79.21
2023-04-16T15:39:29.058Z,78.95
2023-04-16T15:42:00.740Z,79.06
2023-04-16T15:44:28.795Z,79.04
2023-04-16T15:46:56.023Z,79.23
2023-04-16T15:49:23.598Z,79.38
2023-04-16T15:51:51.274Z,79.26
2023-04-16T15:54:18.637Z,79.20
2023-04-16T15:56:46.859Z,79.30
2023-04-16T15:59:14.067Z,79.65
2023-04-16T16:01:41.312Z,79.63
2023-04-16T16:04:08.753Z,79.62
2023-04-16T16:06:38.148Z,79.69
2023-04-16T16:09:05.359Z,79.64
2023-04-16T16:11:32.857Z,79.56
2023-04-16T16:14:03.153Z,79.56
2023-04-16T16:16:30.313Z,79.55
2023-04-16T16:18:57.534Z,79.57
2023-04-16T16:21:24.674Z,79.50
2023-04-16T16:23:51.969Z,79.75
2023-04-16T16:26:20.867Z,79.77
2023-04-16T16:28:48.163Z,79.47
2023-04-16T16:31:15.287Z,79.66
2023-04-16T16:33:42.396Z,79.86
2023-04-16T16:36:12.677Z,79.88
2023-04-16T16:38:42.737Z,79.81
2023-04-16T16:41:09.844Z,79.76
2023-04-16T16:43:36.964Z,79.84
2023-04-16T16:46:04.940Z,79.79
2023-04-16T16:48:32.071Z,79.65
2023-04-16T16:50:59.319Z,79.70
2023-04-16T16:53:26.824Z,79.60
2023-04-16T16:55:53.902Z,79.60
2023-04-16T16:58:21.146Z,79.73
2023-04-16T17:00:48.271Z,79.71
2023-04-16T17:03:15.838Z,79.74
2023-04-16T17:05:43.065Z,79.51
2023-04-16T17:08:10.202Z,79.49
2023-04-16T17:10:37.273Z,79.35
2023-04-16T17:13:04.389Z,79.59
2023-04-16T17:15:31.467Z,79.60
2023-04-16T17:17:58.604Z,79.72
2023-04-16T17:20:26.653Z,79.81
2023-04-16T17:22:54.107Z,79.86
2023-04-16T17:25:21.579Z,79.88
2023-04-16T17:27:48.714Z,79.88
2023-04-16T17:30:16.033Z,79.82
2023-04-16T17:32:43.147Z,79.92
2023-04-16T17:35:11.153Z,80.03
2023-04-16T17:37:38.296Z,80.01
2023-04-16T17:40:07.766Z,80.18
2023-04-16T17:42:35.909Z,80.24
2023-04-16T17:45:03.692Z,80.25
2023-04-16T17:47:30.938Z,80.23
2023-04-16T17:49:58.125Z,80.27
2023-04-16T17:52:25.564Z,80.21
2023-04-16T17:54:53.383Z,80.32
2023-04-16T17:57:21.057Z,80.34
2023-04-16T17:59:48.199Z,80.46
2023-04-16T18:02:15.674Z,80.33
2023-04-16T18:04:42.919Z,80.41
2023-04-16T18:07:10.045Z,80.46
2023-04-16T18:09:37.210Z,80.42
2023-04-16T18:12:04.583Z,80.35
2023-04-16T18:14:31.657Z,80.40
2023-04-16T18:16:58.787Z,80.30
2023-04-16T18:19:26.007Z,80.67
2023-04-16T18:21:53.093Z,80.50
2023-04-16T18:24:20.192Z,80.42
2023-04-16T18:26:47.363Z,80.33
2023-04-16T18:29:14.914Z,80.44
2023-04-16T18:31:42.441Z,80.37
2023-04-16T18:34:10.043Z,80.53
2023-04-16T18:36:37.324Z,80.40
2023-04-16T18:39:04.390Z,80.76
2023-04-16T18:41:31.725Z,80.60
2023-04-16T18:43:58.861Z,80.52
2023-04-16T18:46:26.938Z,80.70
2023-04-16T18:48:54.429Z,80.64
2023-04-16T18:51:21.845Z,80.81
2023-04-16T18:53:48.918Z,80.69
2023-04-16T18:56:16.078Z,80.78
2023-04-16T18:58:43.482Z,80.83
2023-04-16T19:01:13.190Z,80.85
2023-04-16T19:03:40.518Z,80.96
2023-04-16T19:06:07.802Z,81.00
2023-04-16T19:08:34.913Z,81.18
2023-04-16T19:11:02.113Z,81.21
2023-04-16T19:13:30.619Z,81.05
2023-04-16T19:16:02.285Z,81.12
2023-04-16T19:18:29.409Z,81.06
2023-04-16T19:21:03.690Z,81.12
2023-04-16T19:23:30.845Z,81.16
2023-04-16T19:25:57.997Z,80.99
2023-04-16T19:28:25.891Z,81.15
2023-04-16T19:30:53.986Z,81.41
2023-04-16T19:33:21.149Z,81.56
2023-04-16T19:35:48.342Z,81.28
2023-04-16T19:38:15.779Z,81.43
2023-04-16T19:40:46.903Z,81.50
2023-04-16T19:43:14.343Z,81.43
2023-04-16T19:45:49.681Z,81.44
2023-04-16T19:48:16.891Z,81.66
2023-04-16T19:50:44.176Z,81.42
2023-04-16T19:53:12.298Z,81.73
2023-04-16T19:55:40.289Z,81.69
2023-04-16T19:58:08.190Z,82.01
2023-04-16T20:00:38.681Z,81.79
2023-04-16T20:03:06.480Z,81.83
2023-04-16T20:05:33.813Z,82.13
2023-04-16T20:08:01.023Z,82.03
2023-04-16T20:10:28.171Z,82.06
2023-04-16T20:12:55.395Z,82.26
2023-04-16T20:15:22.617Z,82.22
2023-04-16T20:17:49.811Z,82.34
2023-04-16T20:20:16.998Z,82.38
2023-04-16T20:22:44.192Z,82.40
2023-04-16T20:25:11.691Z,82.44
2023-04-16T20:27:38.816Z,82.51
2023-04-16T20:30:06.722Z,82.70
2023-04-16T20:32:33.975Z,82.44
2023-04-16T20:35:02.139Z,82.49
2023-04-16T20:37:29.312Z,82.53
2023-04-16T20:39:56.753Z,82.76
2023-04-16T20:42:26.954Z,82.84
2023-04-16T20:44:56.864Z,83.05
2023-04-16T20:47:24.211Z,82.76
2023-04-16T20:49:53.065Z,83.01
2023-04-16T20:52:21.608Z,83.08
2023-04-16T20:54:52.067Z,83.00
2023-04-16T20:57:19.510Z,83.22
2023-04-16T20:59:46.631Z,83.22
2023-04-16T21:02:13.988Z,83.27
2023-04-16T21:04:41.294Z,83.35
2023-04-16T21:07:08.455Z,83.44
2023-04-16T21:09:35.897Z,83.38
2023-04-16T21:12:03.060Z,83.40
2023-04-16T21:14:30.137Z,83.39
2023-04-16T21:16:57.755Z,83.47
2023-04-16T21:19:24.827Z,83.40
2023-04-16T21:21:52.043Z,83.51
2023-04-16T21:24:19.178Z,83.52
2023-04-16T21:26:46.272Z,83.88
2023-04-16T21:29:13.514Z,83.71
2023-04-16T21:31:41.006Z,83.82
2023-04-16T21:34:08.189Z,84.00
2023-04-16T21:36:35.304Z,84.08
2023-04-16T21:39:02.528Z,84.11
2023-04-16T21:41:29.682Z,83.90
2023-04-16T21:43:57.092Z,84.20
2023-04-16T21:46:25.662Z,83.94
2023-04-16T21:48:52.829Z,84.04
2023-04-16T21:51:29.108Z,84.00
2023-04-16T21:53:57.254Z,84.05
2023-04-16T21:56:25.111Z,84.34
2023-04-16T21:58:52.679Z,84.28
2023-04-16T22:01:19.865Z,84.24
2023-04-16T22:03:50.976Z,84.16
2023-04-16T22:06:18.551Z,84.29
2023-04-16T22:08:45.655Z,84.21
2023-04-16T22:11:12.915Z,84.24
2023-04-16T22:13:42.142Z,84.51
2023-04-16T22:16:11.520Z,84.50
2023-04-16T22:18:39.009Z,84.39
2023-04-16T22:21:06.181Z,84.68
2023-04-16T22:23:33.389Z,84.67
2023-04-16T22:26:02.918Z,84.70
2023-04-16T22:28:30.280Z,84.62
2023-04-16T22:30:57.584Z,84.79
2023-04-16T22:33:24.702Z,84.68
2023-04-16T22:35:52.177Z,84.84
2023-04-16T22:38:19.372Z,84.69
2023-04-16T22:40:49.008Z,84.88
2023-04-16T22:43:17.763Z,84.75
2023-04-16T22:45:46.457Z,84.77
2023-04-16T22:48:13.831Z,84.92
2023-04-16T22:50:45.971Z,84.90
2023-04-16T22:53:13.114Z,84.94
2023-04-16T22:55:40.194Z,85.09
2023-04-16T22:58:07.286Z,84.75
2023-04-16T23:00:34.570Z,85.03
2023-04-16T23:03:02.066Z,85.22
2023-04-16T23:05:29.453Z,84.99
2023-04-16T23:07:57.041Z,84.63
2023-04-16T23:10:24.134Z,84.87
2023-04-16T23:12:54.877Z,85.15
2023-04-16T23:15:22.075Z,85.12
2023-04-16T23:17:49.182Z,84.95
2023-04-16T23:20:16.468Z,84.96
2023-04-16T23:22:43.542Z,85.05
2023-04-16T23:25:11.118Z,85.04
2023-04-16T23:27:38.349Z,84.88
2023-04-16T23:30:06.890Z,85.00
2023-04-16T23:32:34.457Z,85.00
2023-04-16T23:35:01.674Z,84.87
2023-04-16T23:37:28.763Z,84.92
2023-04-16T23:39:55.888Z,85.10
2023-04-16T23:42:22.954Z,84.71
2023-04-16T23:44:50.029Z,85.00
2023-04-16T23:47:17.205Z,85.07
2023-04-16T23:49:44.274Z,85.26
2023-04-16T23:52:11.333Z,85.23
2023-04-16T23:54:38.441Z,85.09
2023-04-16T23:57:05.760Z,84.89
2023-04-16T23:59:32.864Z,84.90
